sensor_id;sensor_type;location;lat;lon;timestamp;P1;durP1;ratioP1;P2;durP2;ratioP2
36663;SDS011;53333;51.976;20.144;2022-09-09T00:01:14;15.95;;;7.68;;
36663;SDS011;53333;51.976;20.144;2022-09-09T00:04:09;11.98;;;8.13;;
36663;SDS011;53333;51.976;20.144;2022-09-09T00:06:50;13.60;;;7.70;;
36663;SDS011;53333;51.976;20.144;2022-09-09T00:12:12;9.13;;;6.70;;
36663;SDS011;53333;51.976;20.144;2022-09-09T00:15:00;12.93;;;7.80;;
36663;SDS011;53333;51.976;20.144;2022-09-09T00:17:43;14.82;;;8.00;;
36663;SDS011;53333;51.976;20.144;2022-09-09T00:20:25;11.52;;;7.07;;
36663;SDS011;53333;51.976;20.144;2022-09-09T00:23:06;11.93;;;7.15;;
36663;SDS011;53333;51.976;20.144;2022-09-09T00:25:55;13.65;;;8.10;;
36663;SDS011;53333;51.976;20.144;2022-09-09T00:28:45;15.13;;;7.90;;
36663;SDS011;53333;51.976;20.144;2022-09-09T00:31:30;15.60;;;7.75;;
36663;SDS011;53333;51.976;20.144;2022-09-09T00:34:08;14.95;;;8.50;;
36663;SDS011;53333;51.976;20.144;2022-09-09T00:36:45;13.75;;;8.00;;
36663;SDS011;53333;51.976;20.144;2022-09-09T00:39:25;14.88;;;8.48;;
36663;SDS011;53333;51.976;20.144;2022-09-09T00:42:11;14.27;;;9.15;;
36663;SDS011;53333;51.976;20.144;2022-09-09T00:44:58;15.98;;;8.77;;
36663;SDS011;53333;51.976;20.144;2022-09-09T00:47:45;13.73;;;8.55;;
36663;SDS011;53333;51.976;20.144;2022-09-09T00:50:33;13.65;;;8.32;;
36663;SDS011;53333;51.976;20.144;2022-09-09T00:53:20;12.82;;;7.40;;
36663;SDS011;53333;51.976;20.144;2022-09-09T00:56:09;13.00;;;7.82;;
36663;SDS011;53333;51.976;20.144;2022-09-09T00:58:49;13.40;;;8.65;;
36663;SDS011;53333;51.976;20.144;2022-09-09T01:01:37;14.82;;;8.70;;
36663;SDS011;53333;51.976;20.144;2022-09-09T01:04:15;18.23;;;8.90;;
36663;SDS011;53333;51.976;20.144;2022-09-09T01:06:58;13.75;;;8.52;;
36663;SDS011;53333;51.976;20.144;2022-09-09T01:09:42;15.02;;;9.13;;
36663;SDS011;53333;51.976;20.144;2022-09-09T01:12:31;15.88;;;9.30;;
36663;SDS011;53333;51.976;20.144;2022-09-09T01:15:17;13.52;;;9.18;;
36663;SDS011;53333;51.976;20.144;2022-09-09T01:17:58;14.02;;;8.23;;
36663;SDS011;53333;51.976;20.144;2022-09-09T01:20:39;14.43;;;8.82;;
36663;SDS011;53333;51.976;20.144;2022-09-09T01:23:32;16.27;;;9.23;;
36663;SDS011;53333;51.976;20.144;2022-09-09T01:26:45;20.52;;;9.80;;
36663;SDS011;53333;51.976;20.144;2022-09-09T01:29:27;15.45;;;8.82;;
36663;SDS011;53333;51.976;20.144;2022-09-09T01:35:22;16.52;;;9.32;;
36663;SDS011;53333;51.976;20.144;2022-09-09T01:38:10;13.07;;;8.95;;
36663;SDS011;53333;51.976;20.144;2022-09-09T01:40:43;16.70;;;9.23;;
36663;SDS011;53333;51.976;20.144;2022-09-09T01:43:20;16.88;;;9.45;;
36663;SDS011;53333;51.976;20.144;2022-09-09T01:45:58;15.40;;;9.77;;
36663;SDS011;53333;51.976;20.144;2022-09-09T01:48:35;21.42;;;9.75;;
36663;SDS011;53333;51.976;20.144;2022-09-09T01:51:14;16.00;;;9.80;;
36663;SDS011;53333;51.976;20.144;2022-09-09T01:53:51;16.52;;;9.30;;
36663;SDS011;53333;51.976;20.144;2022-09-09T01:56:31;20.05;;;10.90;;
36663;SDS011;53333;51.976;20.144;2022-09-09T01:59:28;18.05;;;10.05;;
36663;SDS011;53333;51.976;20.144;2022-09-09T02:02:24;22.38;;;10.77;;
36663;SDS011;53333;51.976;20.144;2022-09-09T02:05:21;15.70;;;10.00;;
36663;SDS011;53333;51.976;20.144;2022-09-09T02:08:26;20.42;;;10.00;;
36663;SDS011;53333;51.976;20.144;2022-09-09T02:11:11;14.50;;;9.40;;
36663;SDS011;53333;51.976;20.144;2022-09-09T02:14:15;16.88;;;10.77;;
36663;SDS011;53333;51.976;20.144;2022-09-09T02:17:03;17.77;;;9.35;;
36663;SDS011;53333;51.976;20.144;2022-09-09T02:20:06;19.52;;;9.70;;
36663;SDS011;53333;51.976;20.144;2022-09-09T02:23:01;19.83;;;10.35;;
36663;SDS011;53333;51.976;20.144;2022-09-09T02:25:35;15.38;;;10.00;;
36663;SDS011;53333;51.976;20.144;2022-09-09T02:28:21;16.60;;;9.60;;
36663;SDS011;53333;51.976;20.144;2022-09-09T02:31:11;16.85;;;9.85;;
36663;SDS011;53333;51.976;20.144;2022-09-09T02:34:00;16.30;;;10.45;;
36663;SDS011;53333;51.976;20.144;2022-09-09T02:36:45;18.48;;;10.02;;
36663;SDS011;53333;51.976;20.144;2022-09-09T02:39:25;17.75;;;9.60;;
36663;SDS011;53333;51.976;20.144;2022-09-09T02:42:01;16.85;;;10.25;;
36663;SDS011;53333;51.976;20.144;2022-09-09T02:44:40;18.08;;;11.05;;
36663;SDS011;53333;51.976;20.144;2022-09-09T02:47:17;18.00;;;9.57;;
36663;SDS011;53333;51.976;20.144;2022-09-09T02:50:18;13.30;;;9.65;;
36663;SDS011;53333;51.976;20.144;2022-09-09T02:53:06;17.95;;;10.13;;
36663;SDS011;53333;51.976;20.144;2022-09-09T02:55:53;17.77;;;10.35;;
36663;SDS011;53333;51.976;20.144;2022-09-09T02:58:35;17.25;;;10.25;;
36663;SDS011;53333;51.976;20.144;2022-09-09T03:01:15;18.55;;;10.07;;
36663;SDS011;53333;51.976;20.144;2022-09-09T03:03:49;19.85;;;10.25;;
36663;SDS011;53333;51.976;20.144;2022-09-09T03:11:46;16.17;;;9.27;;
36663;SDS011;53333;51.976;20.144;2022-09-09T03:14:21;15.38;;;10.23;;
36663;SDS011;53333;51.976;20.144;2022-09-09T03:17:00;21.05;;;10.90;;
36663;SDS011;53333;51.976;20.144;2022-09-09T03:19:39;18.98;;;11.35;;
36663;SDS011;53333;51.976;20.144;2022-09-09T03:22:15;19.25;;;10.77;;
36663;SDS011;53333;51.976;20.144;2022-09-09T03:24:53;19.73;;;12.65;;
36663;SDS011;53333;51.976;20.144;2022-09-09T03:27:29;14.60;;;9.18;;
36663;SDS011;53333;51.976;20.144;2022-09-09T03:30:06;22.02;;;11.30;;
36663;SDS011;53333;51.976;20.144;2022-09-09T03:32:44;16.60;;;10.32;;
36663;SDS011;53333;51.976;20.144;2022-09-09T03:35:22;15.27;;;9.88;;
36663;SDS011;53333;51.976;20.144;2022-09-09T03:37:56;15.02;;;10.75;;
36663;SDS011;53333;51.976;20.144;2022-09-09T03:40:30;16.70;;;10.13;;
36663;SDS011;53333;51.976;20.144;2022-09-09T03:43:07;17.02;;;10.43;;
36663;SDS011;53333;51.976;20.144;2022-09-09T03:45:45;15.45;;;10.05;;
36663;SDS011;53333;51.976;20.144;2022-09-09T03:48:28;17.58;;;10.88;;
36663;SDS011;53333;51.976;20.144;2022-09-09T03:51:04;16.70;;;11.02;;
36663;SDS011;53333;51.976;20.144;2022-09-09T03:53:42;16.92;;;10.43;;
36663;SDS011;53333;51.976;20.144;2022-09-09T03:56:18;20.05;;;10.65;;
36663;SDS011;53333;51.976;20.144;2022-09-09T03:58:56;17.80;;;10.95;;
36663;SDS011;53333;51.976;20.144;2022-09-09T04:01:30;18.35;;;11.30;;
36663;SDS011;53333;51.976;20.144;2022-09-09T04:04:04;17.02;;;10.88;;
36663;SDS011;53333;51.976;20.144;2022-09-09T04:09:20;13.98;;;9.38;;
36663;SDS011;53333;51.976;20.144;2022-09-09T04:11:55;16.25;;;10.55;;
36663;SDS011;53333;51.976;20.144;2022-09-09T04:14:29;21.75;;;11.32;;
36663;SDS011;53333;51.976;20.144;2022-09-09T04:17:08;19.70;;;12.40;;
36663;SDS011;53333;51.976;20.144;2022-09-09T04:19:46;19.63;;;11.85;;
36663;SDS011;53333;51.976;20.144;2022-09-09T04:22:22;24.27;;;11.38;;
36663;SDS011;53333;51.976;20.144;2022-09-09T04:24:59;19.48;;;11.43;;
36663;SDS011;53333;51.976;20.144;2022-09-09T04:27:39;17.92;;;11.30;;
36663;SDS011;53333;51.976;20.144;2022-09-09T04:30:17;23.30;;;12.48;;
36663;SDS011;53333;51.976;20.144;2022-09-09T04:32:50;17.25;;;10.95;;
36663;SDS011;53333;51.976;20.144;2022-09-09T04:35:24;25.90;;;12.52;;
36663;SDS011;53333;51.976;20.144;2022-09-09T04:38:00;20.75;;;13.13;;
36663;SDS011;53333;51.976;20.144;2022-09-09T04:40:37;24.52;;;12.90;;
36663;SDS011;53333;51.976;20.144;2022-09-09T04:43:14;20.45;;;12.35;;
36663;SDS011;53333;51.976;20.144;2022-09-09T04:45:51;19.20;;;12.25;;
36663;SDS011;53333;51.976;20.144;2022-09-09T04:48:28;21.73;;;12.98;;
36663;SDS011;53333;51.976;20.144;2022-09-09T04:51:06;24.52;;;12.45;;
36663;SDS011;53333;51.976;20.144;2022-09-09T04:53:42;20.95;;;11.02;;
36663;SDS011;53333;51.976;20.144;2022-09-09T04:56:18;18.23;;;11.82;;
36663;SDS011;53333;51.976;20.144;2022-09-09T04:58:59;24.45;;;12.52;;
36663;SDS011;53333;51.976;20.144;2022-09-09T05:04:15;22.17;;;13.18;;
36663;SDS011;53333;51.976;20.144;2022-09-09T05:06:51;22.20;;;13.00;;
36663;SDS011;53333;51.976;20.144;2022-09-09T05:09:26;27.75;;;13.73;;
36663;SDS011;53333;51.976;20.144;2022-09-09T05:12:02;25.27;;;13.20;;
36663;SDS011;53333;51.976;20.144;2022-09-09T05:14:39;26.00;;;16.65;;
36663;SDS011;53333;51.976;20.144;2022-09-09T05:17:13;25.55;;;13.27;;
36663;SDS011;53333;51.976;20.144;2022-09-09T05:19:50;43.42;;;22.45;;
36663;SDS011;53333;51.976;20.144;2022-09-09T05:22:24;27.65;;;15.18;;
36663;SDS011;53333;51.976;20.144;2022-09-09T05:25:00;21.92;;;13.38;;
36663;SDS011;53333;51.976;20.144;2022-09-09T05:30:09;27.15;;;14.77;;
36663;SDS011;53333;51.976;20.144;2022-09-09T05:32:44;27.50;;;13.90;;
36663;SDS011;53333;51.976;20.144;2022-09-09T05:35:21;30.65;;;13.75;;
36663;SDS011;53333;51.976;20.144;2022-09-09T05:37:58;29.63;;;14.75;;
36663;SDS011;53333;51.976;20.144;2022-09-09T05:40:33;24.45;;;13.73;;
36663;SDS011;53333;51.976;20.144;2022-09-09T05:43:10;28.50;;;15.60;;
36663;SDS011;53333;51.976;20.144;2022-09-09T05:45:44;26.73;;;14.55;;
36663;SDS011;53333;51.976;20.144;2022-09-09T05:48:19;31.95;;;14.60;;
36663;SDS011;53333;51.976;20.144;2022-09-09T05:50:53;25.58;;;14.63;;
36663;SDS011;53333;51.976;20.144;2022-09-09T05:53:28;44.72;;;16.50;;
36663;SDS011;53333;51.976;20.144;2022-09-09T05:56:06;33.28;;;15.52;;
36663;SDS011;53333;51.976;20.144;2022-09-09T05:58:50;27.77;;;15.20;;
36663;SDS011;53333;51.976;20.144;2022-09-09T06:01:27;31.33;;;15.43;;
36663;SDS011;53333;51.976;20.144;2022-09-09T06:04:02;26.65;;;15.45;;
36663;SDS011;53333;51.976;20.144;2022-09-09T06:06:37;33.40;;;15.50;;
36663;SDS011;53333;51.976;20.144;2022-09-09T06:09:16;34.00;;;17.55;;
36663;SDS011;53333;51.976;20.144;2022-09-09T06:11:50;38.33;;;18.73;;
36663;SDS011;53333;51.976;20.144;2022-09-09T06:14:27;36.15;;;17.88;;
36663;SDS011;53333;51.976;20.144;2022-09-09T06:17:03;36.03;;;19.50;;
36663;SDS011;53333;51.976;20.144;2022-09-09T06:19:37;41.95;;;18.88;;
36663;SDS011;53333;51.976;20.144;2022-09-09T06:22:11;33.30;;;19.13;;
36663;SDS011;53333;51.976;20.144;2022-09-09T06:24:45;33.58;;;18.88;;
36663;SDS011;53333;51.976;20.144;2022-09-09T06:29:54;33.95;;;17.50;;
36663;SDS011;53333;51.976;20.144;2022-09-09T06:32:27;38.00;;;18.10;;
36663;SDS011;53333;51.976;20.144;2022-09-09T06:35:01;44.75;;;20.63;;
36663;SDS011;53333;51.976;20.144;2022-09-09T06:37:35;43.58;;;19.90;;
36663;SDS011;53333;51.976;20.144;2022-09-09T06:40:09;39.63;;;19.90;;
36663;SDS011;53333;51.976;20.144;2022-09-09T06:42:44;44.45;;;18.38;;
36663;SDS011;53333;51.976;20.144;2022-09-09T06:45:30;46.08;;;24.63;;
36663;SDS011;53333;51.976;20.144;2022-09-09T06:48:05;35.25;;;19.52;;
36663;SDS011;53333;51.976;20.144;2022-09-09T06:50:40;33.00;;;19.27;;
36663;SDS011;53333;51.976;20.144;2022-09-09T06:53:15;43.85;;;19.10;;
36663;SDS011;53333;51.976;20.144;2022-09-09T06:55:51;46.42;;;24.63;;
36663;SDS011;53333;51.976;20.144;2022-09-09T06:58:27;57.85;;;27.85;;
36663;SDS011;53333;51.976;20.144;2022-09-09T07:01:05;44.03;;;22.88;;
36663;SDS011;53333;51.976;20.144;2022-09-09T07:03:42;49.00;;;22.15;;
36663;SDS011;53333;51.976;20.144;2022-09-09T07:06:19;47.05;;;22.40;;
36663;SDS011;53333;51.976;20.144;2022-09-09T07:08:56;54.97;;;28.58;;
36663;SDS011;53333;51.976;20.144;2022-09-09T07:11:33;42.55;;;20.55;;
36663;SDS011;53333;51.976;20.144;2022-09-09T07:14:10;43.90;;;21.27;;
36663;SDS011;53333;51.976;20.144;2022-09-09T07:16:50;49.10;;;21.80;;
36663;SDS011;53333;51.976;20.144;2022-09-09T07:19:30;40.78;;;20.38;;
36663;SDS011;53333;51.976;20.144;2022-09-09T07:22:05;41.15;;;19.73;;
36663;SDS011;53333;51.976;20.144;2022-09-09T07:24:39;45.35;;;21.48;;
36663;SDS011;53333;51.976;20.144;2022-09-09T07:29:46;57.80;;;22.33;;
36663;SDS011;53333;51.976;20.144;2022-09-09T07:34:55;47.08;;;22.80;;
36663;SDS011;53333;51.976;20.144;2022-09-09T07:37:31;49.17;;;21.13;;
36663;SDS011;53333;51.976;20.144;2022-09-09T07:42:38;50.88;;;23.42;;
36663;SDS011;53333;51.976;20.144;2022-09-09T07:45:13;48.42;;;22.55;;
36663;SDS011;53333;51.976;20.144;2022-09-09T07:47:48;50.42;;;23.98;;
36663;SDS011;53333;51.976;20.144;2022-09-09T07:50:22;43.75;;;21.63;;
36663;SDS011;53333;51.976;20.144;2022-09-09T07:52:57;52.72;;;22.48;;
36663;SDS011;53333;51.976;20.144;2022-09-09T07:55:31;53.25;;;22.25;;
36663;SDS011;53333;51.976;20.144;2022-09-09T07:58:05;50.22;;;23.70;;
36663;SDS011;53333;51.976;20.144;2022-09-09T08:00:38;58.63;;;24.30;;
36663;SDS011;53333;51.976;20.144;2022-09-09T08:03:16;55.40;;;22.50;;
36663;SDS011;53333;51.976;20.144;2022-09-09T08:05:50;51.00;;;23.05;;
36663;SDS011;53333;51.976;20.144;2022-09-09T08:08:24;53.08;;;24.30;;
36663;SDS011;53333;51.976;20.144;2022-09-09T08:11:04;55.60;;;23.88;;
36663;SDS011;53333;51.976;20.144;2022-09-09T08:13:40;46.35;;;23.38;;
36663;SDS011;53333;51.976;20.144;2022-09-09T08:16:17;46.92;;;22.90;;
36663;SDS011;53333;51.976;20.144;2022-09-09T08:18:55;49.60;;;24.33;;
36663;SDS011;53333;51.976;20.144;2022-09-09T08:21:30;48.42;;;24.05;;
36663;SDS011;53333;51.976;20.144;2022-09-09T08:24:04;52.83;;;25.15;;
36663;SDS011;53333;51.976;20.144;2022-09-09T08:26:40;47.08;;;22.92;;
36663;SDS011;53333;51.976;20.144;2022-09-09T08:29:15;46.95;;;22.67;;
36663;SDS011;53333;51.976;20.144;2022-09-09T08:31:52;53.13;;;24.98;;
36663;SDS011;53333;51.976;20.144;2022-09-09T08:34:31;47.53;;;23.95;;
36663;SDS011;53333;51.976;20.144;2022-09-09T08:37:09;52.30;;;24.20;;
36663;SDS011;53333;51.976;20.144;2022-09-09T08:39:44;53.15;;;24.23;;
36663;SDS011;53333;51.976;20.144;2022-09-09T08:42:31;51.28;;;24.15;;
36663;SDS011;53333;51.976;20.144;2022-09-09T08:45:28;46.83;;;24.27;;
36663;SDS011;53333;51.976;20.144;2022-09-09T08:48:13;48.38;;;24.73;;
36663;SDS011;53333;51.976;20.144;2022-09-09T08:50:57;46.75;;;23.90;;
36663;SDS011;53333;51.976;20.144;2022-09-09T08:53:37;43.35;;;22.27;;
36663;SDS011;53333;51.976;20.144;2022-09-09T08:56:16;43.58;;;24.33;;
36663;SDS011;53333;51.976;20.144;2022-09-09T08:58:56;46.78;;;24.13;;
36663;SDS011;53333;51.976;20.144;2022-09-09T09:04:50;44.72;;;23.95;;
36663;SDS011;53333;51.976;20.144;2022-09-09T09:07:39;45.63;;;24.00;;
36663;SDS011;53333;51.976;20.144;2022-09-09T09:10:32;52.88;;;25.30;;
36663;SDS011;53333;51.976;20.144;2022-09-09T09:13:23;42.33;;;23.37;;
36663;SDS011;53333;51.976;20.144;2022-09-09T09:16:06;43.67;;;23.02;;
36663;SDS011;53333;51.976;20.144;2022-09-09T09:18:49;37.33;;;22.30;;
36663;SDS011;53333;51.976;20.144;2022-09-09T09:21:25;38.03;;;21.92;;
36663;SDS011;53333;51.976;20.144;2022-09-09T09:24:12;38.35;;;23.33;;
36663;SDS011;53333;51.976;20.144;2022-09-09T09:26:53;39.83;;;23.30;;
36663;SDS011;53333;51.976;20.144;2022-09-09T09:29:29;42.35;;;23.63;;
36663;SDS011;53333;51.976;20.144;2022-09-09T09:32:02;40.13;;;22.00;;
36663;SDS011;53333;51.976;20.144;2022-09-09T09:34:37;40.42;;;21.17;;
36663;SDS011;53333;51.976;20.144;2022-09-09T09:37:12;43.53;;;23.67;;
36663;SDS011;53333;51.976;20.144;2022-09-09T09:39:52;41.03;;;22.15;;
36663;SDS011;53333;51.976;20.144;2022-09-09T09:42:34;43.60;;;22.50;;
36663;SDS011;53333;51.976;20.144;2022-09-09T09:45:13;33.67;;;20.27;;
36663;SDS011;53333;51.976;20.144;2022-09-09T09:47:57;34.15;;;18.60;;
36663;SDS011;53333;51.976;20.144;2022-09-09T09:50:45;34.90;;;19.30;;
36663;SDS011;53333;51.976;20.144;2022-09-09T09:53:22;32.17;;;20.38;;
36663;SDS011;53333;51.976;20.144;2022-09-09T09:56:00;31.23;;;18.25;;
36663;SDS011;53333;51.976;20.144;2022-09-09T09:58:37;29.13;;;16.63;;
36663;SDS011;53333;51.976;20.144;2022-09-09T10:01:26;44.25;;;29.67;;
36663;SDS011;53333;51.976;20.144;2022-09-09T10:04:14;32.60;;;17.38;;
36663;SDS011;53333;51.976;20.144;2022-09-09T10:06:50;31.00;;;18.13;;
36663;SDS011;53333;51.976;20.144;2022-09-09T10:09:25;26.45;;;17.00;;
36663;SDS011;53333;51.976;20.144;2022-09-09T10:12:05;30.98;;;18.10;;
36663;SDS011;53333;51.976;20.144;2022-09-09T10:14:52;30.13;;;17.77;;
36663;SDS011;53333;51.976;20.144;2022-09-09T10:17:35;24.67;;;16.95;;
36663;SDS011;53333;51.976;20.144;2022-09-09T10:26:26;27.38;;;16.25;;
36663;SDS011;53333;51.976;20.144;2022-09-09T10:29:18;23.92;;;16.45;;
36663;SDS011;53333;51.976;20.144;2022-09-09T10:32:14;22.58;;;15.57;;
36663;SDS011;53333;51.976;20.144;2022-09-09T10:35:19;22.17;;;15.88;;
36663;SDS011;53333;51.976;20.144;2022-09-09T10:38:17;27.35;;;14.98;;
36663;SDS011;53333;51.976;20.144;2022-09-09T10:41:05;27.40;;;15.95;;
36663;SDS011;53333;51.976;20.144;2022-09-09T10:44:11;26.65;;;16.35;;
36663;SDS011;53333;51.976;20.144;2022-09-09T10:46:59;24.77;;;15.25;;
36663;SDS011;53333;51.976;20.144;2022-09-09T10:49:55;23.40;;;15.77;;
36663;SDS011;53333;51.976;20.144;2022-09-09T10:52:42;27.40;;;16.13;;
36663;SDS011;53333;51.976;20.144;2022-09-09T10:55:24;22.48;;;15.02;;
36663;SDS011;53333;51.976;20.144;2022-09-09T10:58:02;23.13;;;15.18;;
36663;SDS011;53333;51.976;20.144;2022-09-09T11:00:38;26.00;;;14.05;;
36663;SDS011;53333;51.976;20.144;2022-09-09T11:03:18;22.90;;;14.70;;
36663;SDS011;53333;51.976;20.144;2022-09-09T11:05:56;22.15;;;13.75;;
36663;SDS011;53333;51.976;20.144;2022-09-09T11:08:34;22.15;;;14.80;;
36663;SDS011;53333;51.976;20.144;2022-09-09T11:11:12;22.73;;;14.32;;
36663;SDS011;53333;51.976;20.144;2022-09-09T11:13:53;21.20;;;14.10;;
36663;SDS011;53333;51.976;20.144;2022-09-09T11:16:36;21.02;;;14.25;;
36663;SDS011;53333;51.976;20.144;2022-09-09T11:19:17;21.17;;;13.88;;
36663;SDS011;53333;51.976;20.144;2022-09-09T11:21:57;18.58;;;12.63;;
36663;SDS011;53333;51.976;20.144;2022-09-09T11:24:36;21.30;;;13.32;;
36663;SDS011;53333;51.976;20.144;2022-09-09T11:27:20;21.83;;;12.77;;
36663;SDS011;53333;51.976;20.144;2022-09-09T11:30:12;23.05;;;13.48;;
36663;SDS011;53333;51.976;20.144;2022-09-09T11:36:33;17.23;;;11.85;;
36663;SDS011;53333;51.976;20.144;2022-09-09T11:42:22;17.42;;;10.45;;
36663;SDS011;53333;51.976;20.144;2022-09-09T11:44:57;15.00;;;10.85;;
36663;SDS011;53333;51.976;20.144;2022-09-09T11:47:54;17.77;;;10.27;;
36663;SDS011;53333;51.976;20.144;2022-09-09T11:50:31;17.98;;;10.57;;
36663;SDS011;53333;51.976;20.144;2022-09-09T11:53:23;13.88;;;9.63;;
36663;SDS011;53333;51.976;20.144;2022-09-09T11:56:00;12.60;;;9.48;;
36663;SDS011;53333;51.976;20.144;2022-09-09T11:58:43;14.13;;;8.95;;
36663;SDS011;53333;51.976;20.144;2022-09-09T12:01:33;13.30;;;8.90;;
36663;SDS011;53333;51.976;20.144;2022-09-09T12:04:13;15.57;;;9.48;;
36663;SDS011;53333;51.976;20.144;2022-09-09T12:06:53;12.05;;;8.90;;
36663;SDS011;53333;51.976;20.144;2022-09-09T12:09:44;13.90;;;8.88;;
36663;SDS011;53333;51.976;20.144;2022-09-09T12:12:24;13.40;;;9.20;;
36663;SDS011;53333;51.976;20.144;2022-09-09T12:15:02;14.75;;;9.60;;
36663;SDS011;53333;51.976;20.144;2022-09-09T12:17:53;13.25;;;9.20;;
36663;SDS011;53333;51.976;20.144;2022-09-09T12:20:34;13.40;;;9.55;;
36663;SDS011;53333;51.976;20.144;2022-09-09T12:26:31;13.52;;;9.02;;
36663;SDS011;53333;51.976;20.144;2022-09-09T12:29:14;12.95;;;9.18;;
36663;SDS011;53333;51.976;20.144;2022-09-09T12:31:58;14.43;;;8.60;;
36663;SDS011;53333;51.976;20.144;2022-09-09T12:34:37;12.05;;;8.23;;
36663;SDS011;53333;51.976;20.144;2022-09-09T12:37:15;10.90;;;8.98;;
36663;SDS011;53333;51.976;20.144;2022-09-09T12:40:03;12.95;;;8.63;;
36663;SDS011;53333;51.976;20.144;2022-09-09T12:42:40;11.63;;;9.25;;
36663;SDS011;53333;51.976;20.144;2022-09-09T12:45:15;16.08;;;9.05;;
36663;SDS011;53333;51.976;20.144;2022-09-09T12:47:51;11.75;;;7.85;;
36663;SDS011;53333;51.976;20.144;2022-09-09T12:50:29;10.43;;;7.53;;
36663;SDS011;53333;51.976;20.144;2022-09-09T12:53:08;11.23;;;7.75;;
36663;SDS011;53333;51.976;20.144;2022-09-09T12:55:49;10.23;;;7.63;;
36663;SDS011;53333;51.976;20.144;2022-09-09T12:58:26;11.98;;;8.00;;
36663;SDS011;53333;51.976;20.144;2022-09-09T13:01:05;12.43;;;8.43;;
36663;SDS011;53333;51.976;20.144;2022-09-09T13:03:41;11.50;;;8.02;;
36663;SDS011;53333;51.976;20.144;2022-09-09T13:06:20;11.55;;;8.52;;
36663;SDS011;53333;51.976;20.144;2022-09-09T13:09:00;11.32;;;8.10;;
36663;SDS011;53333;51.976;20.144;2022-09-09T13:11:36;11.38;;;8.45;;
36663;SDS011;53333;51.976;20.144;2022-09-09T13:14:15;12.27;;;8.20;;
36663;SDS011;53333;51.976;20.144;2022-09-09T13:16:55;12.57;;;7.82;;
36663;SDS011;53333;51.976;20.144;2022-09-09T13:19:32;12.52;;;8.40;;
36663;SDS011;53333;51.976;20.144;2022-09-09T13:22:12;10.13;;;7.90;;
36663;SDS011;53333;51.976;20.144;2022-09-09T13:24:46;10.18;;;7.50;;
36663;SDS011;53333;51.976;20.144;2022-09-09T13:27:24;13.13;;;8.77;;
36663;SDS011;53333;51.976;20.144;2022-09-09T13:33:04;10.77;;;7.38;;
36663;SDS011;53333;51.976;20.144;2022-09-09T13:35:53;9.77;;;7.40;;
36663;SDS011;53333;51.976;20.144;2022-09-09T13:38:29;12.73;;;7.65;;
36663;SDS011;53333;51.976;20.144;2022-09-09T13:41:06;9.30;;;7.20;;
36663;SDS011;53333;51.976;20.144;2022-09-09T13:43:43;9.48;;;6.78;;
36663;SDS011;53333;51.976;20.144;2022-09-09T13:46:25;10.90;;;7.88;;
36663;SDS011;53333;51.976;20.144;2022-09-09T13:49:18;9.43;;;6.82;;
36663;SDS011;53333;51.976;20.144;2022-09-09T13:52:02;9.57;;;7.20;;
36663;SDS011;53333;51.976;20.144;2022-09-09T13:54:38;9.73;;;7.15;;
36663;SDS011;53333;51.976;20.144;2022-09-09T13:57:14;11.55;;;6.45;;
36663;SDS011;53333;51.976;20.144;2022-09-09T13:59:49;11.60;;;7.28;;
36663;SDS011;53333;51.976;20.144;2022-09-09T14:02:37;11.90;;;7.53;;
36663;SDS011;53333;51.976;20.144;2022-09-09T14:05:15;15.00;;;10.48;;
36663;SDS011;53333;51.976;20.144;2022-09-09T14:07:50;13.48;;;8.10;;
36663;SDS011;53333;51.976;20.144;2022-09-09T14:10:24;8.63;;;6.72;;
36663;SDS011;53333;51.976;20.144;2022-09-09T14:12:57;9.00;;;7.85;;
36663;SDS011;53333;51.976;20.144;2022-09-09T14:15:31;10.05;;;8.02;;
36663;SDS011;53333;51.976;20.144;2022-09-09T14:18:08;8.38;;;7.15;;
36663;SDS011;53333;51.976;20.144;2022-09-09T14:20:44;10.85;;;7.70;;
36663;SDS011;53333;51.976;20.144;2022-09-09T14:23:18;11.88;;;7.10;;
36663;SDS011;53333;51.976;20.144;2022-09-09T14:25:53;10.57;;;7.75;;
36663;SDS011;53333;51.976;20.144;2022-09-09T14:28:27;21.25;;;13.90;;
36663;SDS011;53333;51.976;20.144;2022-09-09T14:31:21;16.48;;;9.30;;
36663;SDS011;53333;51.976;20.144;2022-09-09T14:33:56;17.75;;;7.18;;
36663;SDS011;53333;51.976;20.144;2022-09-09T14:36:30;10.60;;;7.57;;
36663;SDS011;53333;51.976;20.144;2022-09-09T14:39:04;9.32;;;7.28;;
36663;SDS011;53333;51.976;20.144;2022-09-09T14:41:37;8.43;;;6.80;;
36663;SDS011;53333;51.976;20.144;2022-09-09T14:44:11;9.63;;;8.35;;
36663;SDS011;53333;51.976;20.144;2022-09-09T14:46:45;16.98;;;7.53;;
36663;SDS011;53333;51.976;20.144;2022-09-09T14:49:20;11.45;;;7.05;;
36663;SDS011;53333;51.976;20.144;2022-09-09T14:51:54;10.18;;;7.53;;
36663;SDS011;53333;51.976;20.144;2022-09-09T14:54:27;8.63;;;6.95;;
36663;SDS011;53333;51.976;20.144;2022-09-09T14:57:01;10.63;;;7.95;;
36663;SDS011;53333;51.976;20.144;2022-09-09T14:59:36;8.43;;;7.20;;
36663;SDS011;53333;51.976;20.144;2022-09-09T15:02:09;12.23;;;8.23;;
36663;SDS011;53333;51.976;20.144;2022-09-09T15:04:46;11.18;;;8.60;;
36663;SDS011;53333;51.976;20.144;2022-09-09T15:07:21;10.00;;;7.20;;
36663;SDS011;53333;51.976;20.144;2022-09-09T15:09:55;12.77;;;7.97;;
36663;SDS011;53333;51.976;20.144;2022-09-09T15:12:28;13.15;;;7.13;;
36663;SDS011;53333;51.976;20.144;2022-09-09T15:15:02;10.55;;;6.90;;
36663;SDS011;53333;51.976;20.144;2022-09-09T15:17:36;10.93;;;7.45;;
36663;SDS011;53333;51.976;20.144;2022-09-09T15:20:11;10.68;;;7.28;;
36663;SDS011;53333;51.976;20.144;2022-09-09T15:22:45;10.30;;;8.02;;
36663;SDS011;53333;51.976;20.144;2022-09-09T15:25:19;9.40;;;7.53;;
36663;SDS011;53333;51.976;20.144;2022-09-09T15:27:53;12.68;;;7.75;;
36663;SDS011;53333;51.976;20.144;2022-09-09T15:30:27;9.93;;;7.47;;
36663;SDS011;53333;51.976;20.144;2022-09-09T15:33:02;11.80;;;7.75;;
36663;SDS011;53333;51.976;20.144;2022-09-09T15:35:45;10.05;;;7.20;;
36663;SDS011;53333;51.976;20.144;2022-09-09T15:38:19;12.10;;;8.30;;
36663;SDS011;53333;51.976;20.144;2022-09-09T15:40:53;8.77;;;6.95;;
36663;SDS011;53333;51.976;20.144;2022-09-09T15:43:27;9.88;;;7.30;;
36663;SDS011;53333;51.976;20.144;2022-09-09T15:46:02;9.32;;;6.78;;
36663;SDS011;53333;51.976;20.144;2022-09-09T15:48:56;10.27;;;7.70;;
36663;SDS011;53333;51.976;20.144;2022-09-09T15:51:37;11.13;;;7.40;;
36663;SDS011;53333;51.976;20.144;2022-09-09T15:54:14;11.65;;;7.63;;
36663;SDS011;53333;51.976;20.144;2022-09-09T15:56:50;11.48;;;8.43;;
36663;SDS011;53333;51.976;20.144;2022-09-09T15:59:27;10.65;;;7.40;;
36663;SDS011;53333;51.976;20.144;2022-09-09T16:02:03;8.77;;;7.10;;
36663;SDS011;53333;51.976;20.144;2022-09-09T16:04:37;9.50;;;7.57;;
36663;SDS011;53333;51.976;20.144;2022-09-09T16:07:12;11.20;;;6.75;;
36663;SDS011;53333;51.976;20.144;2022-09-09T16:09:45;10.55;;;7.60;;
36663;SDS011;53333;51.976;20.144;2022-09-09T16:12:19;9.35;;;6.90;;
36663;SDS011;53333;51.976;20.144;2022-09-09T16:14:53;9.82;;;7.63;;
36663;SDS011;53333;51.976;20.144;2022-09-09T16:17:26;13.60;;;8.75;;
36663;SDS011;53333;51.976;20.144;2022-09-09T16:20:00;14.20;;;9.07;;